Time;durP1;ratioP1;P1;durP2;ratioP2;P2;SDS_P1;SDS_P2;PMS_P1;PMS_P2;Temp;Humidity;BMP_temperature;BMP_pressure;BME280_temperature;BME280_humidity;BME280_pressure;Samples;Min_cycle;Max_cycle;Signal;HPM_P1;HPM_P2
2021/04/26 00:00:06;;;;;;;4.10;3.33;;;12.00;40.30;;;;;;1490270;39;20044;-52
2021/04/26 00:01:27;;;;;;;4.18;3.38;;;12.00;40.30;;;;;;1490257;39;20308;-54
2021/04/26 00:02:48;;;;;;;5.55;3.42;;;12.00;40.30;;;;;;1489232;39;20094;-53
2021/04/26 00:04:09;;;;;;;3.72;2.97;;;11.90;40.30;;;;;;1489692;39;20040;-55
2021/04/26 00:05:30;;;;;;;4.50;3.60;;;11.90;40.30;;;;;;1490783;39;20133;-54
2021/04/26 00:06:51;;;;;;;5.30;3.60;;;11.90;40.40;;;;;;1489034;39;20028;-56
2021/04/26 00:08:12;;;;;;;6.13;3.67;;;11.90;40.50;;;;;;1488272;39;20033;-53
2021/04/26 00:09:32;;;;;;;8.52;3.58;;;11.90;40.60;;;;;;1491042;39;20028;-50
2021/04/26 00:10:53;;;;;;;4.55;3.35;;;11.90;40.60;;;;;;1491048;39;20034;-55
2021/04/26 00:12:14;;;;;;;5.03;3.30;;;11.80;40.50;;;;;;1489164;39;20031;-53
2021/04/26 00:13:35;;;;;;;5.70;3.38;;;11.80;40.60;;;;;;1491095;39;20144;-52
2021/04/26 00:14:56;;;;;;;3.85;3.25;;;11.80;40.70;;;;;;1490220;39;20047;-51
2021/04/26 00:16:17;;;;;;;6.45;3.72;;;11.80;40.80;;;;;;1489256;39;20246;-51
2021/04/26 00:17:38;;;;;;;6.45;3.53;;;11.80;40.70;;;;;;1489992;39;20062;-53
2021/04/26 00:19:00;;;;;;;5.53;3.83;;;11.80;40.70;;;;;;1488838;39;20046;-54
2021/04/26 00:20:27;;;;;;;4.60;3.22;;;11.70;40.80;;;;;;1488469;39;20067;-54
2021/04/26 00:21:48;;;;;;;5.75;3.25;;;11.70;40.90;;;;;;1488596;39;20024;-55
2021/04/26 00:23:10;;;;;;;3.78;3.38;;;11.70;40.70;;;;;;1490286;39;20423;-54
2021/04/26 00:24:31;;;;;;;7.05;4.20;;;11.70;40.80;;;;;;1490002;39;20120;-53
2021/04/26 00:25:51;;;;;;;6.28;3.95;;;11.70;40.90;;;;;;1490570;39;20117;-51
2021/04/26 00:27:12;;;;;;;6.82;3.80;;;11.70;41.00;;;;;;1491541;39;20020;-51
2021/04/26 00:28:33;;;;;;;7.72;3.75;;;11.70;41.00;;;;;;1491232;39;20035;-53
2021/04/26 00:29:54;;;;;;;6.20;3.90;;;11.60;40.90;;;;;;1489714;39;20031;-53
2021/04/26 00:31:15;;;;;;;7.20;3.90;;;11.60;40.90;;;;;;1488952;39;20028;-53
2021/04/26 00:32:36;;;;;;;6.53;3.63;;;11.60;40.90;;;;;;1490108;39;20038;-53
2021/04/26 00:33:57;;;;;;;4.07;3.47;;;11.60;40.90;;;;;;1490667;39;20061;-50
2021/04/26 00:35:18;;;;;;;4.80;3.40;;;11.60;41.00;;;;;;1490355;39;20036;-54
2021/04/26 00:36:39;;;;;;;8.50;3.40;;;11.50;41.20;;;;;;1489081;39;20333;-52
2021/04/26 00:38:00;;;;;;;3.78;3.15;;;11.50;41.20;;;;;;1490698;39;20064;-54
2021/04/26 00:39:21;;;;;;;6.57;3.95;;;11.50;41.10;;;;;;1491582;39;20116;-53
2021/04/26 00:40:42;;;;;;;5.30;3.40;;;11.50;41.10;;;;;;1490632;39;20028;-52
2021/04/26 00:42:03;;;;;;;5.75;3.38;;;11.40;41.10;;;;;;1490396;39;20035;-53
2021/04/26 00:43:24;;;;;;;7.47;3.83;;;11.40;41.10;;;;;;1491346;39;20028;-50
2021/04/26 00:44:45;;;;;;;6.28;3.20;;;11.40;41.10;;;;;;1491329;39;20478;-54
2021/04/26 00:46:06;;;;;;;4.72;3.38;;;11.40;41.20;;;;;;1488945;39;20036;-52
2021/04/26 00:47:27;;;;;;;5.90;3.70;;;11.40;41.30;;;;;;1490305;39;20023;-56
2021/04/26 00:48:48;;;;;;;4.20;3.45;;;11.40;41.20;;;;;;1489413;39;20028;-56
2021/04/26 00:50:12;;;;;;;4.38;3.25;;;11.40;41.20;;;;;;1490422;39;20766;-53
2021/04/26 00:51:33;;;;;;;4.68;3.63;;;11.30;41.40;;;;;;1489411;39;20379;-54
2021/04/26 00:52:55;;;;;;;3.90;3.50;;;11.30;41.30;;;;;;1488857;39;20031;-51
2021/04/26 00:54:16;;;;;;;7.10;4.00;;;11.30;41.40;;;;;;1488361;39;20032;-52
2021/04/26 00:55:39;;;;;;;5.15;3.70;;;11.30;41.50;;;;;;1490625;39;20047;-53
2021/04/26 00:56:59;;;;;;;6.10;3.33;;;11.30;41.40;;;;;;1490430;39;20076;-55
2021/04/26 00:58:21;;;;;;;6.05;3.55;;;11.20;41.80;;;;;;1491258;39;20356;-54
2021/04/26 00:59:42;;;;;;;6.60;3.22;;;11.30;41.30;;;;;;1491356;39;20371;-53
2021/04/26 01:01:03;;;;;;;4.75;3.13;;;11.20;41.20;;;;;;1489229;39;20032;-52
2021/04/26 01:02:24;;;;;;;5.75;3.45;;;11.20;41.30;;;;;;1489965;39;20105;-53
2021/04/26 01:03:45;;;;;;;7.78;3.60;;;11.20;41.40;;;;;;1489816;39;20059;-56
2021/04/26 01:05:12;;;;;;;5.57;3.70;;;11.10;41.30;;;;;;1490216;39;20051;-53
2021/04/26 01:06:34;;;;;;;6.13;3.50;;;11.10;41.40;;;;;;1490590;39;20445;-55
2021/04/26 01:07:56;;;;;;;5.82;3.38;;;11.10;41.30;;;;;;1489824;39;20043;-56
2021/04/26 01:09:17;;;;;;;5.13;3.33;;;11.10;41.40;;;;;;1491147;39;20020;-54
2021/04/26 01:10:38;;;;;;;3.83;3.25;;;11.10;41.40;;;;;;1490783;39;20036;-54
2021/04/26 01:12:27;;;;;;;6.00;3.85;;;11.10;41.50;;;;;;1491472;39;20040;-54
2021/04/26 01:14:11;;;;;;;6.07;3.42;;;11.00;42.00;;;;;;1490855;39;20693;-55
2021/04/26 01:15:44;;;;;;;6.20;3.22;;;11.00;41.90;;;;;;1489132;39;20056;-54
2021/04/26 01:17:11;;;;;;;5.07;3.65;;;11.00;41.90;;;;;;1489756;39;20780;-55
2021/04/26 01:18:53;;;;;;;6.25;3.47;;;11.00;41.90;;;;;;1486140;39;20024;-53
2021/04/26 01:20:51;;;;;;;5.20;3.60;;;11.00;41.90;;;;;;1489119;39;20049;-53
2021/04/26 01:22:27;;;;;;;4.43;3.40;;;11.00;42.00;;;;;;1489123;39;20032;-56
2021/04/26 01:24:29;;;;;;;4.55;3.40;;;11.00;41.90;;;;;;1489830;39;20112;-55
2021/04/26 01:25:51;;;;;;;4.57;3.40;;;11.00;42.10;;;;;;1489128;39;20044;-54
2021/04/26 01:27:47;;;;;;;10.75;3.67;;;11.00;41.60;;;;;;1488809;39;20117;-53
2021/04/26 01:29:24;;;;;;;5.85;3.40;;;11.00;41.80;;;;;;1481994;40;20037;-53
2021/04/26 01:30:51;;;;;;;4.85;3.42;;;11.00;42.00;;;;;;1487620;39;20032;-54
2021/04/26 01:32:26;;;;;;;4.90;3.42;;;10.90;41.70;;;;;;1490336;39;20034;-54
2021/04/26 01:33:50;;;;;;;6.43;3.40;;;10.90;41.80;;;;;;1490272;39;20079;-51
2021/04/26 01:35:14;;;;;;;4.28;3.75;;;10.90;41.60;;;;;;1487959;39;20035;-52
2021/04/26 01:36:36;;;;;;;4.07;3.42;;;10.90;41.70;;;;;;1489736;39;20043;-51
2021/04/26 01:38:07;;;;;;;7.40;3.50;;;10.90;41.80;;;;;;1487720;39;20062;-50
2021/04/26 01:39:29;;;;;;;3.90;3.25;;;10.80;42.00;;;;;;1491115;39;20024;-52
2021/04/26 01:40:53;;;;;;;4.82;3.63;;;10.80;41.70;;;;;;1489025;39;20099;-55
2021/04/26 01:42:15;;;;;;;4.90;3.38;;;10.80;41.80;;;;;;1491550;39;20060;-55
2021/04/26 01:43:38;;;;;;;5.10;3.80;;;10.80;41.80;;;;;;1490221;39;20238;-51
2021/04/26 01:45:06;;;;;;;6.25;3.75;;;10.80;41.90;;;;;;1490265;39;20040;-52
2021/04/26 01:46:28;;;;;;;4.15;3.55;;;10.70;42.00;;;;;;1488951;39;20269;-53
2021/04/26 01:47:52;;;;;;;8.40;4.10;;;10.70;41.80;;;;;;1490472;39;20066;-52
2021/04/26 01:49:15;;;;;;;8.40;3.58;;;10.70;41.90;;;;;;1489283;39;20065;-54
2021/04/26 01:50:36;;;;;;;5.18;3.45;;;10.70;41.90;;;;;;1491268;39;20127;-54
2021/04/26 01:51:57;;;;;;;5.70;3.38;;;10.70;41.90;;;;;;1489832;39;20345;-49
2021/04/26 01:53:20;;;;;;;5.60;3.83;;;10.60;41.90;;;;;;1486875;39;20024;-53
2021/04/26 01:54:41;;;;;;;5.32;3.28;;;10.60;42.00;;;;;;1489481;39;20034;-52
2021/04/26 01:56:05;;;;;;;7.00;3.70;;;10.60;42.00;;;;;;1490535;39;20050;-54
2021/04/26 01:57:28;;;;;;;4.13;3.17;;;10.60;42.20;;;;;;1488989;39;20031;-55
2021/04/26 01:58:51;;;;;;;6.43;3.35;;;10.60;42.20;;;;;;1490320;39;20057;-54
2021/04/26 02:00:22;;;;;;;4.45;3.50;;;10.50;42.30;;;;;;1490745;39;20024;-52
2021/04/26 02:01:42;;;;;;;5.18;3.40;;;10.50;42.50;;;;;;1489813;39;20412;-53
2021/04/26 02:03:04;;;;;;;6.32;3.95;;;10.50;42.20;;;;;;1489711;39;20088;-52
2021/04/26 02:04:28;;;;;;;7.68;3.42;;;10.50;42.30;;;;;;1488541;39;20128;-53
2021/04/26 02:05:52;;;;;;;5.35;3.60;;;10.50;42.40;;;;;;1490922;39;20315;-53
2021/04/26 02:07:14;;;;;;;7.47;3.58;;;10.50;42.30;;;;;;1489752;39;20034;-54
2021/04/26 02:08:38;;;;;;;3.78;3.35;;;10.50;43.00;;;;;;1488393;39;20133;-53
2021/04/26 02:09:59;;;;;;;4.22;3.38;;;10.50;42.50;;;;;;1489106;39;20072;-52
2021/04/26 02:11:20;;;;;;;6.60;3.58;;;10.50;42.50;;;;;;1484368;40;20038;-53
2021/04/26 02:12:43;;;;;;;4.80;3.25;;;10.50;42.60;;;;;;1489275;39;20036;-52
2021/04/26 02:14:04;;;;;;;6.90;3.50;;;10.40;42.70;;;;;;1490261;39;20035;-52
2021/04/26 02:15:28;;;;;;;6.25;3.70;;;10.40;42.80;;;;;;1490631;39;20036;-53
2021/04/26 02:16:49;;;;;;;6.82;3.80;;;10.40;43.00;;;;;;1490778;39;20347;-52
2021/04/26 02:18:11;;;;;;;6.75;3.78;;;10.40;42.90;;;;;;1490006;39;20118;-51
2021/04/26 02:19:32;;;;;;;5.32;3.33;;;10.30;42.90;;;;;;1489152;39;20089;-53
2021/04/26 02:20:53;;;;;;;7.10;3.50;;;10.40;42.90;;;;;;1489013;39;20055;-53
2021/04/26 02:22:14;;;;;;;8.85;3.97;;;10.30;42.80;;;;;;1488050;39;20046;-54
2021/04/26 02:23:36;;;;;;;7.35;3.33;;;10.30;42.90;;;;;;1491095;39;20040;-50
2021/04/26 02:24:57;;;;;;;8.15;3.78;;;10.30;43.10;;;;;;1489642;39;20027;-53
2021/04/26 02:26:18;;;;;;;7.22;3.85;;;10.40;43.10;;;;;;1492041;39;20028;-53
2021/04/26 02:27:39;;;;;;;5.15;3.70;;;10.30;43.00;;;;;;1491091;39;20043;-50
2021/04/26 02:29:00;;;;;;;6.65;3.92;;;10.30;43.10;;;;;;1490109;39;20048;-53
2021/04/26 02:30:22;;;;;;;5.95;3.95;;;10.30;43.20;;;;;;1489935;39;20035;-52
2021/04/26 02:31:45;;;;;;;4.70;3.53;;;10.30;43.10;;;;;;1489941;39;20040;-55
2021/04/26 02:33:16;;;;;;;4.30;3.60;;;10.30;43.10;;;;;;1489370;39;20140;-56
2021/04/26 02:34:44;;;;;;;5.07;3.35;;;10.40;43.00;;;;;;1489307;39;20046;-51
2021/04/26 02:36:22;;;;;;;6.47;3.38;;;10.30;43.20;;;;;;1489470;39;20055;-51
2021/04/26 02:37:58;;;;;;;4.82;3.42;;;10.30;43.20;;;;;;1489225;39;20059;-52
2021/04/26 02:39:20;;;;;;;4.47;3.45;;;10.30;43.10;;;;;;1490009;39;20040;-52
2021/04/26 02:40:53;;;;;;;6.70;3.33;;;10.30;42.80;;;;;;1489934;39;20027;-51
2021/04/26 02:42:15;;;;;;;5.90;3.15;;;10.30;43.10;;;;;;1491452;39;20051;-57
2021/04/26 02:43:39;;;;;;;6.47;3.40;;;10.30;42.90;;;;;;1490866;39;20419;-53
2021/04/26 02:45:02;;;;;;;7.00;3.55;;;10.30;43.00;;;;;;1490916;39;20038;-54
2021/04/26 02:46:24;;;;;;;6.22;3.58;;;10.30;43.10;;;;;;1490033;39;20036;-54
2021/04/26 02:47:46;;;;;;;6.05;3.40;;;10.30;43.30;;;;;;1490350;39;20729;-50
2021/04/26 02:49:08;;;;;;;5.50;3.88;;;10.30;43.30;;;;;;1490878;39;20132;-51
2021/04/26 02:50:31;;;;;;;6.20;3.45;;;10.30;43.30;;;;;;1488806;39;20046;-55
2021/04/26 02:51:52;;;;;;;6.68;4.20;;;10.30;43.40;;;;;;1489695;39;20032;-51
2021/04/26 02:53:16;;;;;;;7.47;3.50;;;10.30;43.40;;;;;;1488660;39;20122;-51
2021/04/26 02:54:38;;;;;;;4.13;3.70;;;10.20;43.50;;;;;;1489237;39;20132;-51
2021/04/26 02:56:07;;;;;;;7.22;3.72;;;10.20;43.40;;;;;;1487589;39;20043;-54
2021/04/26 02:57:32;;;;;;;7.28;3.70;;;10.20;43.40;;;;;;1490440;39;20031;-53
2021/04/26 02:58:56;;;;;;;8.57;3.53;;;10.30;43.90;;;;;;1488750;39;20031;-50
2021/04/26 03:00:19;;;;;;;7.22;4.03;;;10.20;43.30;;;;;;1489910;39;20028;-52
2021/04/26 03:01:42;;;;;;;6.47;3.72;;;10.20;43.40;;;;;;1487888;39;20471;-53
2021/04/26 03:03:04;;;;;;;5.88;3.72;;;10.20;43.50;;;;;;1487312;39;20044;-52
2021/04/26 03:04:28;;;;;;;4.22;3.78;;;10.20;43.40;;;;;;1490064;39;20106;-54
2021/04/26 03:05:50;;;;;;;6.68;3.65;;;10.20;43.40;;;;;;1489967;39;20020;-53
2021/04/26 03:07:12;;;;;;;5.60;3.80;;;10.20;43.40;;;;;;1489686;39;20032;-56
2021/04/26 03:08:34;;;;;;;7.63;3.83;;;10.20;43.50;;;;;;1489825;39;20016;-53
2021/04/26 03:09:55;;;;;;;6.72;3.88;;;10.20;43.50;;;;;;1489600;39;20092;-54
2021/04/26 03:11:18;;;;;;;6.57;4.38;;;10.20;43.50;;;;;;1487816;39;20036;-53
2021/04/26 03:12:42;;;;;;;4.93;3.55;;;10.20;43.70;;;;;;1490115;39;20043;-53
2021/04/26 03:14:03;;;;;;;7.53;3.97;;;10.20;43.60;;;;;;1490458;39;20044;-53
2021/04/26 03:15:27;;;;;;;6.60;4.00;;;10.20;43.50;;;;;;1489050;39;20265;-51
2021/04/26 03:16:49;;;;;;;5.97;3.88;;;10.20;43.70;;;;;;1489306;39;20038;-52
2021/04/26 03:18:15;;;;;;;4.43;3.92;;;10.20;43.60;;;;;;1489296;39;20030;-55
2021/04/26 03:19:41;;;;;;;5.00;3.90;;;10.10;43.80;;;;;;1489735;39;20084;-52
2021/04/26 03:21:07;;;;;;;5.22;3.97;;;10.10;43.80;;;;;;1489824;39;20050;-52
2021/04/26 03:22:28;;;;;;;6.00;3.97;;;10.10;43.80;;;;;;1489899;39;20353;-55
2021/04/26 03:23:49;;;;;;;6.38;4.32;;;10.10;43.60;;;;;;1488987;39;20234;-53
2021/04/26 03:25:11;;;;;;;7.32;3.88;;;10.10;43.60;;;;;;1489851;39;20179;-52
2021/04/26 03:26:32;;;;;;;7.07;4.65;;;10.10;43.60;;;;;;1489834;39;20342;-53
2021/04/26 03:27:55;;;;;;;6.05;3.80;;;10.10;43.70;;;;;;1489057;39;20337;-51
2021/04/26 03:29:19;;;;;;;7.35;3.63;;;10.10;43.80;;;;;;1489298;39;20028;-54
2021/04/26 03:30:41;;;;;;;7.40;4.10;;;10.10;43.70;;;;;;1489337;39;20394;-53
2021/04/26 03:32:02;;;;;;;5.97;4.20;;;10.10;43.60;;;;;;1488121;39;20276;-54
2021/04/26 03:33:23;;;;;;;6.35;3.78;;;10.10;43.80;;;;;;1487833;39;20032;-52
2021/04/26 03:34:47;;;;;;;8.23;4.38;;;10.00;43.80;;;;;;1489736;39;20315;-50
2021/04/26 03:36:08;;;;;;;6.45;4.15;;;10.00;43.90;;;;;;1486715;40;20024;-53
2021/04/26 03:37:30;;;;;;;7.50;4.18;;;10.00;43.90;;;;;;1488457;39;20359;-53
2021/04/26 03:38:51;;;;;;;6.25;4.38;;;10.00;43.90;;;;;;1490156;39;20049;-53
2021/04/26 03:40:17;;;;;;;7.35;4.72;;;10.00;43.90;;;;;;1488467;39;20076;-53
2021/04/26 03:41:39;;;;;;;4.88;3.95;;;10.00;44.10;;;;;;1489863;39;20032;-53
2021/04/26 03:43:00;;;;;;;6.90;3.97;;;10.00;44.00;;;;;;1489983;39;20046;-53
2021/04/26 03:44:21;;;;;;;6.25;4.00;;;10.00;44.10;;;;;;1487094;39;20081;-50
2021/04/26 03:45:43;;;;;;;5.47;4.47;;;10.00;44.10;;;;;;1489665;39;20139;-51
2021/04/26 03:47:05;;;;;;;5.28;4.35;;;10.00;44.10;;;;;;1490594;39;20047;-52
2021/04/26 03:48:26;;;;;;;6.93;3.95;;;10.00;44.10;;;;;;1490810;39;20035;-54
2021/04/26 03:49:47;;;;;;;7.20;4.70;;;10.00;44.60;;;;;;1490978;39;20023;-51
2021/04/26 03:51:08;;;;;;;6.65;3.88;;;10.00;44.00;;;;;;1489625;39;20039;-52
2021/04/26 03:52:28;;;;;;;5.97;4.20;;;10.00;44.10;;;;;;1488951;39;20028;-53
2021/04/26 03:53:49;;;;;;;4.68;4.10;;;10.00;44.10;;;;;;1490585;39;20677;-53
2021/04/26 03:55:14;;;;;;;6.25;4.40;;;10.00;44.10;;;;;;1491060;39;20211;-51
2021/04/26 03:56:35;;;;;;;5.45;4.28;;;10.00;44.30;;;;;;1490355;39;20395;-52
2021/04/26 03:57:56;;;;;;;7.15;4.13;;;9.90;44.10;;;;;;1489466;39;20028;-51
2021/04/26 03:59:17;;;;;;;6.93;4.45;;;10.00;44.10;;;;;;1490584;39;20261;-52
2021/04/26 04:00:38;;;;;;;5.55;4.05;;;10.00;44.10;;;;;;1489874;39;20271;-51
2021/04/26 04:01:58;;;;;;;6.80;4.07;;;9.90;44.00;;;;;;1488481;39;20360;-51
2021/04/26 04:03:19;;;;;;;6.97;4.18;;;9.90;43.90;;;;;;1490855;39;20047;-53
2021/04/26 04:04:40;;;;;;;6.65;4.47;;;9.90;44.00;;;;;;1490214;39;20032;-51
2021/04/26 04:06:02;;;;;;;5.22;4.38;;;9.90;44.00;;;;;;1489242;39;20154;-54
2021/04/26 04:07:25;;;;;;;6.90;4.32;;;9.90;44.00;;;;;;1488608;39;20142;-54
2021/04/26 04:08:46;;;;;;;8.32;4.28;;;9.90;44.10;;;;;;1489203;39;20038;-51
2021/04/26 04:10:09;;;;;;;7.45;4.35;;;9.90;44.10;;;;;;1490315;39;20031;-53
2021/04/26 04:11:31;;;;;;;7.65;4.43;;;9.90;44.20;;;;;;1490885;39;20027;-53
2021/04/26 04:12:52;;;;;;;7.95;4.32;;;9.90;44.20;;;;;;1489745;39;20052;-54
2021/04/26 04:14:12;;;;;;;7.65;4.47;;;9.90;44.20;;;;;;1491401;39;20134;-54
2021/04/26 04:15:33;;;;;;;9.13;4.53;;;9.90;44.10;;;;;;1489307;39;20039;-54
2021/04/26 04:16:54;;;;;;;6.13;4.28;;;9.90;44.10;;;;;;1489634;39;20511;-50
2021/04/26 04:18:15;;;;;;;6.72;4.50;;;9.90;44.10;;;;;;1489995;39;20031;-50
2021/04/26 04:19:36;;;;;;;6.63;4.30;;;9.90;44.20;;;;;;1490038;39;20035;-53
2021/04/26 04:20:57;;;;;;;6.72;4.60;;;9.90;44.20;;;;;;1489354;39;20024;-53
2021/04/26 04:22:18;;;;;;;9.18;4.65;;;9.80;44.10;;;;;;1490519;39;20027;-54
2021/04/26 04:23:39;;;;;;;7.25;4.45;;;9.80;44.20;;;;;;1490648;39;20031;-52
2021/04/26 04:25:00;;;;;;;6.82;4.68;;;9.80;44.20;;;;;;1490380;39;20035;-53
2021/04/26 04:26:21;;;;;;;5.93;4.70;;;9.80;44.20;;;;;;1489931;39;20034;-53
2021/04/26 04:27:44;;;;;;;9.60;5.32;;;9.80;44.30;;;;;;1491251;39;20293;-54
2021/04/26 04:29:05;;;;;;;6.90;4.57;;;9.80;44.30;;;;;;1491349;39;20035;-54
2021/04/26 04:30:26;;;;;;;8.48;5.13;;;9.80;44.70;;;;;;1490363;39;20036;-52
2021/04/26 04:31:47;;;;;;;8.60;4.80;;;9.80;44.30;;;;;;1488750;39;20073;-55
2021/04/26 04:33:08;;;;;;;6.90;4.60;;;9.80;44.40;;;;;;1488377;39;20633;-51
2021/04/26 04:34:29;;;;;;;5.60;4.32;;;9.80;44.40;;;;;;1489089;39;20027;-56
2021/04/26 04:35:51;;;;;;;5.10;4.07;;;9.80;44.40;;;;;;1488867;39;20613;-53
2021/04/26 04:37:12;;;;;;;8.30;4.55;;;9.70;44.50;;;;;;1485989;39;20335;-51
2021/04/26 04:38:33;;;;;;;7.57;4.50;;;9.80;44.60;;;;;;1488341;39;20043;-55
2021/04/26 04:39:54;;;;;;;10.07;5.43;;;9.80;44.50;;;;;;1489165;39;20217;-52
2021/04/26 04:41:14;;;;;;;6.20;4.50;;;9.80;44.50;;;;;;1490099;39;20045;-53
2021/04/26 04:42:35;;;;;;;8.02;5.03;;;9.80;44.60;;;;;;1491082;39;20357;-53
2021/04/26 04:43:56;;;;;;;6.03;4.97;;;9.80;44.60;;;;;;1490102;39;20351;-54
2021/04/26 04:45:19;;;;;;;7.15;4.70;;;9.80;44.40;;;;;;1490301;39;20263;-53
2021/04/26 04:46:40;;;;;;;7.00;5.10;;;9.80;44.40;;;;;;1491474;39;20050;-52
2021/04/26 04:48:02;;;;;;;5.18;4.68;;;9.80;44.40;;;;;;1490714;39;20038;-53
2021/04/26 04:49:23;;;;;;;10.38;4.60;;;9.80;44.50;;;;;;1489822;39;20271;-54
2021/04/26 04:50:44;;;;;;;6.53;4.45;;;9.80;44.50;;;;;;1490999;39;20032;-55
2021/04/26 04:52:06;;;;;;;7.45;5.13;;;9.70;44.60;;;;;;1491079;39;20044;-55
2021/04/26 04:53:26;;;;;;;7.22;4.90;;;9.70;44.60;;;;;;1488911;39;20039;-55
2021/04/26 04:54:47;;;;;;;7.90;4.90;;;9.70;44.70;;;;;;1491427;39;20542;-57
2021/04/26 04:56:08;;;;;;;7.60;5.13;;;9.70;44.70;;;;;;1490981;39;20036;-55
2021/04/26 04:57:29;;;;;;;6.30;5.05;;;9.80;44.90;;;;;;1491027;39;20023;-51
2021/04/26 04:58:51;;;;;;;8.43;5.13;;;9.80;44.80;;;;;;1490698;39;20572;-53
2021/04/26 05:00:12;;;;;;;9.13;5.43;;;9.70;44.70;;;;;;1490477;39;20020;-54
2021/04/26 05:01:33;;;;;;;11.23;5.15;;;9.70;44.60;;;;;;1490907;39;20272;-52
2021/04/26 05:02:54;;;;;;;6.82;4.82;;;9.70;44.60;;;;;;1489395;39;20101;-54
2021/04/26 05:04:16;;;;;;;9.15;5.50;;;9.80;44.70;;;;;;1490867;39;20082;-54
2021/04/26 05:05:37;;;;;;;8.55;4.90;;;9.80;44.70;;;;;;1490938;39;20320;-52
2021/04/26 05:06:58;;;;;;;7.32;4.60;;;9.70;44.70;;;;;;1490531;39;20027;-52
2021/04/26 05:08:19;;;;;;;11.23;5.07;;;9.70;44.70;;;;;;1490157;39;20060;-51
2021/04/26 05:09:40;;;;;;;7.70;5.25;;;9.80;44.80;;;;;;1489513;39;20333;-56
2021/04/26 05:11:01;;;;;;;8.40;5.13;;;9.70;44.70;;;;;;1490508;39;20099;-54
2021/04/26 05:12:22;;;;;;;6.80;4.90;;;9.80;44.80;;;;;;1490246;39;20274;-53
2021/04/26 05:13:42;;;;;;;7.85;4.75;;;9.80;44.90;;;;;;1490992;39;20027;-54
2021/04/26 05:15:04;;;;;;;6.78;5.00;;;9.80;44.80;;;;;;1486544;40;20040;-53
2021/04/26 05:16:26;;;;;;;8.75;4.88;;;9.80;44.80;;;;;;1488855;39;20054;-53
2021/04/26 05:17:47;;;;;;;7.22;5.30;;;9.80;44.70;;;;;;1490342;39;20693;-53
2021/04/26 05:19:08;;;;;;;9.05;5.13;;;9.80;44.70;;;;;;1490767;39;20042;-53
2021/04/26 05:20:29;;;;;;;5.93;4.93;;;9.80;44.70;;;;;;1491283;39;20031;-54
2021/04/26 05:21:50;;;;;;;5.75;5.03;;;9.80;44.70;;;;;;1490559;39;20036;-52
2021/04/26 05:23:11;;;;;;;8.77;5.00;;;9.80;44.70;;;;;;1490940;39;20024;-54
2021/04/26 05:24:32;;;;;;;7.15;5.10;;;9.80;44.70;;;;;;1490833;39;20031;-54
2021/04/26 05:25:53;;;;;;;7.57;4.80;;;9.80;44.70;;;;;;1491086;39;20032;-54
2021/04/26 05:27:14;;;;;;;7.22;4.80;;;9.80;44.80;;;;;;1490978;39;20028;-50
2021/04/26 05:28:35;;;;;;;8.77;4.75;;;9.80;44.80;;;;;;1489114;39;20039;-51
2021/04/26 05:29:56;;;;;;;6.03;5.10;;;9.80;44.80;;;;;;1490682;39;20040;-55
2021/04/26 05:31:17;;;;;;;8.43;4.57;;;9.90;44.80;;;;;;1490042;39;20050;-55
2021/04/26 05:32:38;;;;;;;7.18;5.20;;;9.90;44.80;;;;;;1489338;39;20272;-50
2021/04/26 05:33:59;;;;;;;13.18;5.40;;;9.90;44.80;;;;;;1489820;39;20039;-52
2021/04/26 05:35:20;;;;;;;7.70;4.65;;;9.90;44.80;;;;;;1490437;39;20031;-53
2021/04/26 05:36:41;;;;;;;7.20;5.20;;;9.90;44.90;;;;;;1488871;39;20028;-54
2021/04/26 05:38:14;;;;;;;4.97;4.47;;;9.90;44.80;;;;;;1489268;39;20032;-52
2021/04/26 05:39:36;;;;;;;5.88;4.68;;;9.90;45.10;;;;;;1491362;39;20020;-53
2021/04/26 05:40:58;;;;;;;6.28;4.47;;;9.90;44.80;;;;;;1489753;39;20034;-53
2021/04/26 05:42:19;;;;;;;5.75;4.72;;;10.00;44.90;;;;;;1489159;39;20027;-50
2021/04/26 05:43:40;;;;;;;6.45;4.60;;;10.00;44.90;;;;;;1489329;39;20461;-53
2021/04/26 05:45:01;;;;;;;7.90;4.93;;;10.00;44.90;;;;;;1490840;39;20026;-54
2021/04/26 05:46:22;;;;;;;8.52;4.93;;;10.00;44.90;;;;;;1487890;39;20028;-53
2021/04/26 05:47:44;;;;;;;10.15;5.00;;;10.00;44.80;;;;;;1491279;39;20031;-55
2021/04/26 05:49:04;;;;;;;6.88;4.72;;;10.00;44.80;;;;;;1490912;39;20044;-54
2021/04/26 05:50:25;;;;;;;8.23;5.40;;;10.00;44.80;;;;;;1490405;39;20023;-54
2021/04/26 05:51:46;;;;;;;9.40;4.88;;;10.10;44.80;;;;;;1489529;39;20075;-53
2021/04/26 05:53:07;;;;;;;10.70;4.55;;;10.10;44.80;;;;;;1490590;39;20035;-54
2021/04/26 05:54:28;;;;;;;6.22;4.65;;;10.10;44.90;;;;;;1489196;39;20024;-52
2021/04/26 05:55:50;;;;;;;7.72;5.45;;;10.10;45.30;;;;;;1491137;39;20023;-50
2021/04/26 05:57:11;;;;;;;8.50;5.00;;;10.10;44.70;;;;;;1490254;39;20049;-54
2021/04/26 05:58:32;;;;;;;6.90;4.95;;;10.20;44.70;;;;;;1489031;39;20043;-51
2021/04/26 05:59:54;;;;;;;8.45;5.18;;;10.20;44.60;;;;;;1491024;39;20031;-51
2021/04/26 06:01:15;;;;;;;8.77;5.07;;;10.20;44.60;;;;;;1490356;39;20027;-54
2021/04/26 06:02:36;;;;;;;11.60;5.25;;;10.20;44.60;;;;;;1486486;39;20087;-54
2021/04/26 06:03:57;;;;;;;8.57;5.15;;;10.20;44.50;;;;;;1489736;39;20037;-52
2021/04/26 06:05:18;;;;;;;8.23;5.70;;;10.20;44.50;;;;;;1490012;39;20023;-53
2021/04/26 06:06:39;;;;;;;10.27;5.03;;;10.30;44.70;;;;;;1488909;39;20516;-54
2021/04/26 06:08:00;;;;;;;8.02;4.85;;;10.30;44.80;;;;;;1486615;40;20031;-53
2021/04/26 06:09:20;;;;;;;8.50;4.75;;;10.30;44.80;;;;;;1489044;39;20039;-53
2021/04/26 06:10:41;;;;;;;6.97;4.80;;;10.30;44.60;;;;;;1490737;39;20031;-53
2021/04/26 06:12:02;;;;;;;6.10;4.68;;;10.30;44.60;;;;;;1490720;39;20055;-50
2021/04/26 06:13:23;;;;;;;5.28;4.78;;;10.40;44.50;;;;;;1488583;39;20408;-51
2021/04/26 06:14:44;;;;;;;7.88;4.95;;;10.40;44.40;;;;;;1490856;39;20036;-51
2021/04/26 06:16:07;;;;;;;7.63;5.13;;;10.40;44.30;;;;;;1491049;39;20028;-52
2021/04/26 06:17:28;;;;;;;7.40;4.90;;;10.40;44.30;;;;;;1489070;39;20075;-49
2021/04/26 06:18:49;;;;;;;5.93;4.75;;;10.50;44.30;;;;;;1485701;39;20102;-53
2021/04/26 06:20:10;;;;;;;6.43;4.82;;;10.50;44.40;;;;;;1489722;39;20030;-54
2021/04/26 06:21:31;;;;;;;9.15;4.72;;;10.50;44.30;;;;;;1488850;39;20043;-51
2021/04/26 06:22:52;;;;;;;8.75;4.38;;;10.60;44.30;;;;;;1490954;39;20086;-50
2021/04/26 06:24:13;;;;;;;6.68;4.65;;;10.60;44.50;;;;;;1490901;39;20384;-53
2021/04/26 06:25:36;;;;;;;6.97;4.38;;;10.60;44.60;;;;;;1489961;39;20034;-54
2021/04/26 06:26:57;;;;;;;8.02;4.82;;;10.60;44.50;;;;;;1490986;39;20101;-53
2021/04/26 06:28:18;;;;;;;8.88;4.75;;;10.70;44.40;;;;;;1490902;39;20030;-53
2021/04/26 06:29:39;;;;;;;7.40;4.70;;;10.70;44.30;;;;;;1490374;39;20067;-53
2021/04/26 06:31:00;;;;;;;5.80;4.22;;;10.70;44.30;;;;;;1488152;39;20129;-56
2021/04/26 06:32:23;;;;;;;6.07;4.40;;;10.70;44.30;;;;;;1490304;39;20074;-54
2021/04/26 06:33:44;;;;;;;8.35;5.07;;;10.80;44.30;;;;;;1489287;39;20032;-53
2021/04/26 06:35:06;;;;;;;11.13;5.28;;;10.80;44.40;;;;;;1491161;39;20090;-54
2021/04/26 06:36:29;;;;;;;6.05;4.53;;;10.80;44.30;;;;;;1485755;39;20489;-53
2021/04/26 06:37:51;;;;;;;8.13;4.78;;;10.80;44.30;;;;;;1483106;40;20074;-55
2021/04/26 06:39:15;;;;;;;6.75;4.40;;;10.90;44.20;;;;;;1483807;40;20072;-52
2021/04/26 06:40:37;;;;;;;7.03;4.68;;;10.90;44.10;;;;;;1483990;40;20130;-50
2021/04/26 06:42:00;;;;;;;7.20;4.25;;;10.90;44.00;;;;;;1488518;39;20034;-52
2021/04/26 06:43:21;;;;;;;6.15;4.65;;;11.00;43.90;;;;;;1490046;39;20112;-53
2021/04/26 06:44:42;;;;;;;6.10;4.85;;;11.00;43.70;;;;;;1490873;39;20056;-50
2021/04/26 06:46:03;;;;;;;7.00;5.00;;;11.00;43.70;;;;;;1485630;40;20439;-55
2021/04/26 06:47:24;;;;;;;7.20;5.18;;;11.10;43.70;;;;;;1486241;39;20170;-51
2021/04/26 06:48:44;;;;;;;6.50;4.78;;;11.10;43.70;;;;;;1490436;39;20036;-52
2021/04/26 06:50:06;;;;;;;5.28;4.72;;;11.10;43.60;;;;;;1488429;39;20059;-50
2021/04/26 06:51:27;;;;;;;6.30;4.50;;;11.20;43.70;;;;;;1491220;39;20064;-53
2021/04/26 06:52:50;;;;;;;11.57;4.65;;;11.20;43.50;;;;;;1488892;39;20262;-52
2021/04/26 06:54:10;;;;;;;6.85;4.25;;;11.20;43.50;;;;;;1488864;39;20024;-53
2021/04/26 06:55:32;;;;;;;6.50;4.47;;;11.20;43.40;;;;;;1487919;39;20046;-52
2021/04/26 06:56:53;;;;;;;5.00;4.03;;;11.30;43.40;;;;;;1482313;40;20115;-53
2021/04/26 06:58:13;;;;;;;6.15;4.35;;;11.30;43.30;;;;;;1487832;39;20169;-55
2021/04/26 06:59:34;;;;;;;5.40;4.20;;;11.30;43.10;;;;;;1490708;39;20030;-53
2021/04/26 07:00:55;;;;;;;6.20;4.25;;;11.40;43.20;;;;;;1490364;39;20330;-50
2021/04/26 07:02:16;;;;;;;6.72;4.10;;;11.40;43.30;;;;;;1488342;39;20058;-53
2021/04/26 07:03:37;;;;;;;5.35;3.88;;;11.40;43.30;;;;;;1490501;39;20040;-55
2021/04/26 07:04:58;;;;;;;4.85;4.03;;;11.50;43.10;;;;;;1489936;39;20127;-50
2021/04/26 07:06:19;;;;;;;8.48;3.90;;;11.50;42.90;;;;;;1490437;39;20031;-49
2021/04/26 07:07:40;;;;;;;7.00;3.90;;;11.60;42.90;;;;;;1490959;39;20032;-52
2021/04/26 07:09:01;;;;;;;6.15;4.45;;;11.60;42.80;;;;;;1490509;39;20035;-54
2021/04/26 07:10:22;;;;;;;4.38;3.97;;;11.60;42.80;;;;;;1490465;39;20032;-51